Terminal Aerodrome Forecast
Issued by NWS

Home | Current Version | Previous Version | Text Only | Print | Product List | Glossary On
Versions: 1 2 3 4 5 6 7 8 9 10 11 12 13 14 15 16 17 18 19 20 21 22 23 24 25 26 27
000
FTUS44 KMAF 210500
TAFCNM
TAF
KCNM 210522Z 2106/2206 34008KT P6SM BKN035 OVC070
      TEMPO 2106/2110 3SM TSRA BR BKN005 OVC020CB
     FM211000 04005KT P6SM OVC025
      TEMPO 2110/2114 2SM TSRA BR BKN005 OVC025CB
     FM211400 06007KT P6SM OVC020
      TEMPO 2114/2118 3SM TSRA BR BKN005 OVC025CB
     FM212100 07012KT P6SM BKN040
      TEMPO 2121/2124 2SM TSRA BR BKN005 OVC025CB=

USA.gov is the U.S. government's official web portal to all federal, state and local government web resources and services.